Time;durP1;ratioP1;P1;durP2;ratioP2;P2;SDS_P1;SDS_P2;PMS_P1;PMS_P2;Temp;Humidity;BMP_temperature;BMP_pressure;BME280_temperature;BME280_humidity;BME280_pressure;Samples;Min_cycle;Max_cycle;Signal;HPM_P1;HPM_P2
2021/07/27 00:00:06;;;;;;;1.50;1.00;;;19.70;98.20;;;;;;5008654;28;20460;-76
2021/07/27 00:02:33;;;;;;;1.50;0.90;;;19.70;98.20;;;;;;5008258;28;20613;-77
2021/07/27 00:05:00;;;;;;;1.50;0.97;;;19.70;98.20;;;;;;5009204;28;20460;-77
2021/07/27 00:07:26;;;;;;;1.50;1.00;;;19.60;98.20;;;;;;5010514;28;20487;-77
2021/07/27 00:09:55;;;;;;;1.50;0.90;;;19.60;98.20;;;;;;5010383;28;20488;-77
2021/07/27 00:12:21;;;;;;;1.50;0.90;;;19.60;98.20;;;;;;5006485;28;20490;-77
2021/07/27 00:14:48;;;;;;;1.50;0.90;;;19.60;98.20;;;;;;5010626;28;20464;-77
2021/07/27 00:17:15;;;;;;;1.50;0.90;;;19.60;98.20;;;;;;5005892;28;20494;-77
2021/07/27 00:19:41;;;;;;;1.50;0.90;;;19.50;98.20;;;;;;5011636;28;20503;-77
2021/07/27 00:22:08;;;;;;;1.50;0.90;;;19.50;98.20;;;;;;5008086;28;20549;-76
2021/07/27 00:24:35;;;;;;;1.50;0.90;;;19.40;98.20;;;;;;5009124;28;20863;-76
2021/07/27 00:27:03;;;;;;;1.50;0.90;;;19.40;98.20;;;;;;4998606;28;20487;-76
2021/07/27 00:29:30;;;;;;;1.50;0.90;;;19.40;98.20;;;;;;5014740;28;20955;-77
2021/07/27 00:31:57;;;;;;;1.50;0.90;;;19.30;98.20;;;;;;5006532;28;20506;-78
2021/07/27 00:34:25;;;;;;;1.50;0.90;;;19.30;98.20;;;;;;5014706;28;20464;-77
2021/07/27 00:36:52;;;;;;;1.50;0.90;;;19.30;98.20;;;;;;5001990;28;21014;-76
2021/07/27 00:39:18;;;;;;;1.50;0.90;;;19.30;98.20;;;;;;5015105;28;20461;-78
2021/07/27 00:41:45;;;;;;;1.53;0.97;;;19.30;98.20;;;;;;5001837;28;20538;-78
2021/07/27 00:44:13;;;;;;;1.50;0.90;;;19.30;98.20;;;;;;5015294;28;20959;-78
2021/07/27 00:46:40;;;;;;;1.50;0.90;;;19.20;98.20;;;;;;5003584;28;21288;-77
2021/07/27 00:49:07;;;;;;;1.50;0.97;;;19.20;98.20;;;;;;5018100;28;20468;-77
2021/07/27 00:51:34;;;;;;;1.50;0.90;;;19.20;98.20;;;;;;4998814;28;20491;-78
2021/07/27 00:54:02;;;;;;;1.50;0.93;;;19.20;98.20;;;;;;5018367;28;20475;-78
2021/07/27 00:56:28;;;;;;;1.50;0.90;;;19.20;98.20;;;;;;5000921;28;20495;-76
2021/07/27 00:58:55;;;;;;;1.50;0.90;;;19.20;98.20;;;;;;5014095;28;20986;-77
2021/07/27 01:01:23;;;;;;;1.50;0.90;;;19.20;98.20;;;;;;5000109;28;21024;-78
2021/07/27 01:03:50;;;;;;;1.50;0.90;;;19.20;98.20;;;;;;5018358;28;20464;-77
2021/07/27 01:06:17;;;;;;;1.50;0.90;;;19.10;98.20;;;;;;5002625;28;20481;-77
2021/07/27 01:08:45;;;;;;;1.50;0.90;;;19.10;98.20;;;;;;5022475;28;20456;-77
2021/07/27 01:11:22;;;;;;;1.50;0.90;;;19.10;98.20;;;;;;5001305;28;20860;-77
2021/07/27 01:13:49;;;;;;;1.50;0.90;;;19.10;98.20;;;;;;5019760;28;20471;-77
2021/07/27 01:16:16;;;;;;;1.50;0.90;;;19.10;98.20;;;;;;5005253;28;20479;-77
2021/07/27 01:18:52;;;;;;;1.50;0.90;;;19.10;98.20;;;;;;5020846;28;20496;-79
2021/07/27 01:37:54;;;;;;;1.53;1.00;;;19.00;98.20;;;;;;4998703;28;21023;-76
2021/07/27 01:40:24;;;;;;;1.50;0.90;;;19.00;98.20;;;;;;5003764;28;20479;-78
2021/07/27 01:42:50;;;;;;;1.50;0.90;;;19.00;98.20;;;;;;5007436;28;20817;-76
2021/07/27 01:45:20;;;;;;;1.50;0.90;;;19.00;98.20;;;;;;5005602;28;20475;-78
2021/07/27 01:47:47;;;;;;;1.50;1.00;;;19.00;98.20;;;;;;5012153;28;20228;-78
2021/07/27 01:50:15;;;;;;;1.50;1.00;;;19.00;98.20;;;;;;5007395;28;20872;-77
2021/07/27 01:52:46;;;;;;;1.50;1.00;;;19.00;98.20;;;;;;5012230;28;20941;-77
2021/07/27 01:55:16;;;;;;;1.50;0.90;;;19.00;98.20;;;;;;5007867;28;20983;-77
2021/07/27 01:57:44;;;;;;;1.50;0.90;;;19.00;98.20;;;;;;5013347;28;20545;-77
2021/07/27 02:00:12;;;;;;;1.50;0.90;;;19.00;98.20;;;;;;5007581;28;20467;-77
2021/07/27 02:02:39;;;;;;;1.50;0.90;;;19.00;98.20;;;;;;5008250;28;20499;-78
2021/07/27 02:05:08;;;;;;;1.50;0.90;;;19.00;98.20;;;;;;5012216;28;20464;-77
2021/07/27 02:07:37;;;;;;;1.50;0.90;;;19.00;98.20;;;;;;4991689;28;20983;-77
2021/07/27 02:10:07;;;;;;;1.50;0.90;;;19.00;98.20;;;;;;4991919;28;20461;-77
2021/07/27 02:12:40;;;;;;;1.50;0.93;;;19.00;98.20;;;;;;4983252;28;20977;-77
2021/07/27 02:15:20;;;;;;;1.50;1.00;;;18.90;98.20;;;;;;4986498;28;20977;-78
2021/07/27 02:17:48;;;;;;;1.50;1.00;;;18.90;98.20;;;;;;4991944;28;20488;-77
2021/07/27 02:20:15;;;;;;;1.50;1.00;;;18.90;98.20;;;;;;4991080;28;20523;-79
2021/07/27 02:22:45;;;;;;;1.50;0.90;;;18.90;98.20;;;;;;4979288;28;20580;-79
2021/07/27 02:25:12;;;;;;;1.50;0.90;;;18.90;98.20;;;;;;4989990;28;20461;-77
2021/07/27 02:27:39;;;;;;;1.50;0.90;;;18.90;98.20;;;;;;4997935;28;20495;-79
2021/07/27 02:30:08;;;;;;;1.50;0.90;;;18.80;98.20;;;;;;4990343;28;20465;-78
2021/07/27 02:32:37;;;;;;;1.50;0.90;;;18.80;98.20;;;;;;4993162;28;20488;-77
2021/07/27 02:35:06;;;;;;;1.50;0.90;;;18.80;98.20;;;;;;4989301;28;20458;-77
2021/07/27 02:37:33;;;;;;;1.50;0.90;;;18.80;98.20;;;;;;4976340;28;20545;-76
2021/07/27 02:40:01;;;;;;;1.50;0.90;;;18.80;98.20;;;;;;4986032;28;20537;-78
2021/07/27 02:42:27;;;;;;;1.50;0.90;;;18.80;98.20;;;;;;4978573;28;20528;-78
2021/07/27 02:44:54;;;;;;;1.50;0.90;;;18.80;98.20;;;;;;4986311;28;20468;-77
2021/07/27 02:47:21;;;;;;;1.50;0.90;;;18.80;98.20;;;;;;4986262;28;20484;-77
2021/07/27 02:49:49;;;;;;;1.50;0.90;;;18.70;98.20;;;;;;5009693;28;20853;-79
2021/07/27 02:52:16;;;;;;;1.50;0.90;;;18.70;98.20;;;;;;4992204;28;20919;-78
2021/07/27 02:54:43;;;;;;;1.50;0.90;;;18.70;98.20;;;;;;4993020;28;20504;-78
2021/07/27 02:57:09;;;;;;;1.50;1.00;;;18.70;98.20;;;;;;4981763;28;20488;-79
2021/07/27 02:59:39;;;;;;;1.50;1.00;;;18.60;98.20;;;;;;4986925;28;20465;-77
2021/07/27 03:02:06;;;;;;;1.50;0.90;;;18.60;98.20;;;;;;4989892;28;20543;-78
2021/07/27 03:04:33;;;;;;;1.50;0.90;;;18.60;98.20;;;;;;5009680;28;20480;-78
2021/07/27 03:07:02;;;;;;;1.50;0.90;;;18.60;98.20;;;;;;5002001;28;20570;-78
2021/07/27 03:09:30;;;;;;;1.50;0.90;;;18.60;98.20;;;;;;5012714;28;20995;-78
2021/07/27 03:11:57;;;;;;;1.50;0.90;;;18.60;98.20;;;;;;5003436;28;20478;-78
2021/07/27 03:14:25;;;;;;;1.50;1.00;;;18.60;98.20;;;;;;5015508;28;20464;-77
2021/07/27 03:16:54;;;;;;;1.50;0.90;;;18.60;98.20;;;;;;5006453;28;20487;-78
2021/07/27 03:19:20;;;;;;;1.50;1.00;;;18.60;98.20;;;;;;5016203;28;20464;-78
2021/07/27 03:21:47;;;;;;;1.50;1.00;;;18.60;98.20;;;;;;5005253;28;20917;-78
2021/07/27 03:24:15;;;;;;;1.53;1.00;;;18.60;98.20;;;;;;5016899;28;20467;-76
2021/07/27 03:26:42;;;;;;;1.53;1.00;;;18.60;98.20;;;;;;5003469;28;20487;-79
2021/07/27 03:29:09;;;;;;;1.50;0.90;;;18.50;98.20;;;;;;5016917;28;20507;-79
2021/07/27 03:31:36;;;;;;;1.50;0.90;;;18.50;98.20;;;;;;5003338;28;20982;-78
2021/07/27 03:34:03;;;;;;;1.50;0.93;;;18.50;98.20;;;;;;5017500;28;20494;-78
2021/07/27 03:36:30;;;;;;;1.50;0.90;;;18.50;98.20;;;;;;5003736;28;20506;-77
2021/07/27 03:38:57;;;;;;;1.60;1.20;;;18.50;98.20;;;;;;5017330;28;20463;-78
2021/07/27 03:41:25;;;;;;;1.50;0.90;;;18.50;98.20;;;;;;5001456;28;20536;-77
2021/07/27 03:43:52;;;;;;;1.50;1.03;;;18.50;98.20;;;;;;5018986;28;20460;-77
2021/07/27 03:46:19;;;;;;;1.50;0.90;;;18.60;98.20;;;;;;5001370;28;20480;-77
2021/07/27 03:48:46;;;;;;;1.50;0.90;;;18.60;98.20;;;;;;5019162;28;20464;-78
2021/07/27 03:51:16;;;;;;;1.50;0.90;;;18.60;98.20;;;;;;4999769;28;20761;-77
2021/07/27 03:53:46;;;;;;;1.50;0.90;;;18.60;98.20;;;;;;5020937;28;20472;-78
2021/07/27 03:56:13;;;;;;;1.50;0.90;;;18.60;98.20;;;;;;5002527;28;20480;-78
2021/07/27 03:58:44;;;;;;;1.50;0.90;;;18.60;98.20;;;;;;5019026;28;20464;-78
2021/07/27 04:01:11;;;;;;;1.50;0.90;;;18.60;98.20;;;;;;4997791;28;20483;-77
2021/07/27 04:03:38;;;;;;;1.50;0.90;;;18.60;98.20;;;;;;5021617;28;20468;-76
2021/07/27 04:06:05;;;;;;;1.53;1.00;;;18.60;98.20;;;;;;4996865;28;20476;-75
2021/07/27 04:08:32;;;;;;;1.50;0.90;;;18.50;98.20;;;;;;5020578;28;20853;-77
2021/07/27 04:11:03;;;;;;;1.50;0.90;;;18.50;98.20;;;;;;4993263;28;20460;-77
2021/07/27 04:13:32;;;;;;;1.50;1.00;;;18.50;98.20;;;;;;5019822;28;20464;-78
2021/07/27 04:16:02;;;;;;;1.50;0.90;;;18.50;98.20;;;;;;4994295;28;20469;-78
2021/07/27 04:18:29;;;;;;;1.60;1.27;;;18.50;98.20;;;;;;5000244;28;20461;-78
2021/07/27 04:20:58;;;;;;;1.50;0.90;;;18.50;98.20;;;;;;4979174;28;20465;-78
2021/07/27 04:23:25;;;;;;;1.50;0.90;;;18.50;98.20;;;;;;4999945;28;20461;-78
2021/07/27 04:25:52;;;;;;;1.50;1.00;;;18.50;98.20;;;;;;4982264;28;20500;-77
2021/07/27 04:28:20;;;;;;;1.50;0.90;;;18.60;98.20;;;;;;4999851;28;20476;-77
2021/07/27 04:30:47;;;;;;;1.50;1.00;;;18.60;98.20;;;;;;4978302;28;20920;-76
2021/07/27 04:33:17;;;;;;;1.50;0.90;;;18.60;98.20;;;;;;4996669;28;20493;-77
2021/07/27 04:35:47;;;;;;;1.50;1.00;;;18.70;98.20;;;;;;4987504;28;20464;-77
2021/07/27 04:38:13;;;;;;;1.50;0.90;;;18.70;98.20;;;;;;4985747;28;20496;-78
2021/07/27 04:40:40;;;;;;;1.50;0.90;;;18.70;98.20;;;;;;5006498;28;20460;-77
2021/07/27 04:43:07;;;;;;;1.50;0.90;;;18.70;98.20;;;;;;5004298;28;21016;-77
2021/07/27 04:45:34;;;;;;;1.50;0.90;;;18.70;98.20;;;;;;5010452;28;20911;-77
2021/07/27 04:48:01;;;;;;;1.50;0.90;;;18.80;98.20;;;;;;5015473;28;21018;-77
2021/07/27 04:50:31;;;;;;;1.50;0.97;;;18.80;98.20;;;;;;4994439;28;20656;-78
2021/07/27 04:53:01;;;;;;;1.50;0.90;;;18.80;98.20;;;;;;5012084;28;20467;-76
2021/07/27 04:55:27;;;;;;;1.50;0.90;;;18.90;98.20;;;;;;5013844;28;20467;-79
2021/07/27 04:57:56;;;;;;;1.50;0.90;;;18.90;98.20;;;;;;5000837;28;21111;-78
2021/07/27 05:00:27;;;;;;;1.50;0.90;;;18.90;98.20;;;;;;4982608;28;21019;-78
2021/07/27 05:03:09;;;;;;;1.50;0.93;;;19.00;98.20;;;;;;5009255;28;20551;-79
2021/07/27 05:05:37;;;;;;;1.50;0.90;;;19.00;98.20;;;;;;5010088;28;20542;-76
2021/07/27 05:08:05;;;;;;;1.60;1.10;;;19.00;98.20;;;;;;5003530;28;20478;-76
2021/07/27 05:10:35;;;;;;;1.50;0.90;;;19.00;98.20;;;;;;5006470;28;20464;-77
2021/07/27 05:13:04;;;;;;;1.50;0.90;;;19.00;98.20;;;;;;5007335;28;20484;-77
2021/07/27 05:15:33;;;;;;;1.50;0.90;;;19.10;98.20;;;;;;5000349;28;20472;-76
2021/07/27 05:17:59;;;;;;;1.50;0.90;;;19.10;98.20;;;;;;5011119;28;20485;-76
2021/07/27 05:20:27;;;;;;;1.50;0.90;;;19.10;98.20;;;;;;5006706;28;20488;-79
2021/07/27 05:22:55;;;;;;;1.50;0.90;;;19.10;98.20;;;;;;4998837;28;20498;-79
2021/07/27 05:25:25;;;;;;;1.50;0.90;;;19.20;98.20;;;;;;5009669;28;20468;-80
2021/07/27 05:27:55;;;;;;;1.50;1.00;;;19.20;98.20;;;;;;5002870;28;20494;-79
2021/07/27 05:30:22;;;;;;;1.50;0.90;;;19.20;98.20;;;;;;5015438;28;20452;-78
2021/07/27 05:33:00;;;;;;;1.50;0.90;;;19.20;98.20;;;;;;5010683;28;20488;-77
2021/07/27 05:35:37;;;;;;;1.50;0.90;;;19.30;98.20;;;;;;5019377;28;20523;-79
2021/07/27 05:38:05;;;;;;;1.50;0.90;;;19.30;98.20;;;;;;5004397;28;20530;-79
2021/07/27 05:40:53;;;;;;;1.50;0.90;;;19.40;98.20;;;;;;5018009;28;20467;-77
2021/07/27 05:43:23;;;;;;;1.50;0.90;;;19.40;98.20;;;;;;4990314;28;20563;-77
2021/07/27 05:45:57;;;;;;;1.50;0.90;;;19.40;98.20;;;;;;4985542;28;20605;-78
2021/07/27 05:48:28;;;;;;;1.50;0.90;;;19.50;98.20;;;;;;5027272;28;20854;-77
2021/07/27 05:50:54;;;;;;;1.50;0.90;;;19.60;98.20;;;;;;4991793;28;20493;-80
2021/07/27 05:53:28;;;;;;;1.50;0.90;;;19.70;98.20;;;;;;5005439;28;20489;-78
2021/07/27 05:55:58;;;;;;;1.50;0.90;;;19.70;98.20;;;;;;4989155;28;20484;-77
2021/07/27 05:58:28;;;;;;;1.50;0.90;;;19.80;98.20;;;;;;4995215;28;20464;-79
2021/07/27 06:00:55;;;;;;;1.50;0.93;;;19.70;98.20;;;;;;4986322;28;20460;-79
2021/07/27 06:03:22;;;;;;;1.50;0.90;;;19.70;98.20;;;;;;5010200;28;20460;-78
2021/07/27 06:05:52;;;;;;;1.53;0.90;;;19.80;98.20;;;;;;4999303;28;20471;-77
2021/07/27 06:08:18;;;;;;;1.50;0.90;;;19.70;98.20;;;;;;5014828;28;20483;-78
2021/07/27 06:10:46;;;;;;;1.50;1.00;;;19.70;98.20;;;;;;5006915;28;20855;-78
2021/07/27 06:13:13;;;;;;;1.50;0.90;;;19.70;98.20;;;;;;4994069;28;20495;-80
2021/07/27 06:15:40;;;;;;;1.50;0.90;;;19.70;98.20;;;;;;5006471;28;20616;-80
2021/07/27 06:18:07;;;;;;;1.50;0.90;;;19.80;98.20;;;;;;4982962;28;20497;-78
2021/07/27 06:20:33;;;;;;;1.50;1.00;;;19.80;98.20;;;;;;4985868;28;20588;-78
2021/07/27 06:23:00;;;;;;;1.50;0.90;;;19.90;98.20;;;;;;4995389;28;20566;-78
2021/07/27 06:25:27;;;;;;;1.60;1.00;;;20.00;98.20;;;;;;5008103;28;20665;-78
2021/07/27 06:27:55;;;;;;;1.50;0.90;;;20.20;98.20;;;;;;5013317;28;20483;-78
2021/07/27 06:30:22;;;;;;;1.53;0.90;;;20.50;98.20;;;;;;5010158;28;20468;-78
2021/07/27 06:32:49;;;;;;;1.50;0.90;;;20.70;98.20;;;;;;5014566;28;20478;-79
2021/07/27 06:35:16;;;;;;;1.50;0.90;;;20.90;98.20;;;;;;5009529;28;21089;-79
2021/07/27 06:37:43;;;;;;;1.57;1.00;;;21.00;98.20;;;;;;5010323;28;20485;-79
2021/07/27 06:40:11;;;;;;;1.50;0.90;;;21.10;98.20;;;;;;5010907;28;20468;-78
2021/07/27 06:42:41;;;;;;;1.50;0.90;;;21.10;98.20;;;;;;5011478;28;20475;-81
2021/07/27 06:45:12;;;;;;;1.60;1.10;;;21.20;98.20;;;;;;5011389;28;20468;-81
2021/07/27 06:47:39;;;;;;;1.53;0.90;;;21.20;98.20;;;;;;5009003;28;20553;-79
2021/07/27 06:50:10;;;;;;;1.50;0.90;;;21.20;98.20;;;;;;5011585;28;20476;-78
2021/07/27 06:52:37;;;;;;;1.50;0.90;;;21.30;98.20;;;;;;5007036;28;20573;-78
2021/07/27 06:55:05;;;;;;;1.50;0.90;;;21.20;98.20;;;;;;5009253;28;20460;-78
2021/07/27 06:57:32;;;;;;;1.57;1.00;;;21.20;98.20;;;;;;5011330;28;20706;-79
2021/07/27 06:59:59;;;;;;;1.50;0.90;;;21.10;98.20;;;;;;5013850;28;20464;-78
2021/07/27 07:02:30;;;;;;;5.20;2.10;;;21.10;98.20;;;;;;5011516;28;20471;-79
2021/07/27 07:04:57;;;;;;;1.50;0.90;;;21.10;98.20;;;;;;5011392;28;20741;-79
2021/07/27 07:07:24;;;;;;;1.53;0.90;;;21.10;98.20;;;;;;5010508;28;20495;-78
2021/07/27 07:09:53;;;;;;;1.53;0.90;;;21.20;98.20;;;;;;5012632;28;20471;-78
2021/07/27 07:12:20;;;;;;;1.50;0.90;;;21.20;98.20;;;;;;5008514;28;20602;-80
2021/07/27 07:14:47;;;;;;;1.50;0.90;;;21.30;98.20;;;;;;5011403;28;21053;-80
2021/07/27 07:17:14;;;;;;;1.50;0.90;;;21.50;98.20;;;;;;4987039;28;20485;-80
2021/07/27 07:19:42;;;;;;;1.50;0.90;;;21.50;97.60;;;;;;4986551;28;20549;-81
2021/07/27 07:22:09;;;;;;;1.50;0.90;;;21.50;97.30;;;;;;4993053;28;20491;-80
2021/07/27 07:24:36;;;;;;;1.50;0.90;;;21.60;97.50;;;;;;5010866;28;20542;-81
2021/07/27 07:27:03;;;;;;;1.50;0.90;;;21.60;97.40;;;;;;5003231;28;20484;-80
2021/07/27 07:29:30;;;;;;;1.50;0.90;;;21.60;96.70;;;;;;5016861;28;20468;-79
2021/07/27 07:31:58;;;;;;;1.50;0.90;;;21.60;96.50;;;;;;5009551;28;20491;-80
2021/07/27 07:34:25;;;;;;;1.50;0.90;;;21.50;96.70;;;;;;5018058;28;20470;-81
2021/07/27 07:36:53;;;;;;;1.50;0.90;;;21.60;97.10;;;;;;5002959;28;20510;-81
2021/07/27 07:39:20;;;;;;;1.60;1.00;;;21.60;96.50;;;;;;5018065;28;20964;-79
2021/07/27 07:41:47;;;;;;;1.50;0.90;;;21.70;96.30;;;;;;5006897;28;20493;-81
2021/07/27 07:44:13;;;;;;;1.50;0.90;;;21.70;96.30;;;;;;5017442;28;21018;-79
2021/07/27 07:46:40;;;;;;;1.50;0.90;;;21.70;96.40;;;;;;5003756;28;20586;-79
2021/07/27 07:49:07;;;;;;;1.50;0.90;;;21.70;96.20;;;;;;5020761;28;20465;-81
2021/07/27 07:51:35;;;;;;;1.50;0.90;;;21.80;96.00;;;;;;5006051;28;20490;-80
2021/07/27 07:54:03;;;;;;;1.53;0.90;;;21.90;96.10;;;;;;5020676;28;20533;-80
2021/07/27 07:56:30;;;;;;;1.53;0.90;;;22.10;96.00;;;;;;5006000;28;20626;-80
2021/07/27 07:58:57;;;;;;;1.50;0.90;;;22.40;95.70;;;;;;5021615;28;20959;-80
2021/07/27 08:01:23;;;;;;;1.50;0.90;;;22.60;95.30;;;;;;5004117;28;20475;-80
2021/07/27 08:03:50;;;;;;;1.53;0.90;;;22.80;94.30;;;;;;5021989;28;20540;-80
2021/07/27 08:06:17;;;;;;;1.50;0.90;;;23.00;93.50;;;;;;4997921;28;20484;-81
2021/07/27 08:08:44;;;;;;;1.50;0.90;;;23.30;93.50;;;;;;4994724;28;20594;-81
2021/07/27 08:11:13;;;;;;;1.50;0.90;;;23.60;92.10;;;;;;4982912;28;20487;-80
2021/07/27 08:13:39;;;;;;;1.50;0.90;;;23.90;91.30;;;;;;4998053;28;20489;-81
2021/07/27 08:16:09;;;;;;;1.53;0.90;;;24.00;90.80;;;;;;4985897;28;20991;-81
2021/07/27 08:18:35;;;;;;;1.50;0.90;;;24.10;90.40;;;;;;5012683;28;20468;-82
2021/07/27 08:21:03;;;;;;;1.53;0.90;;;24.30;90.90;;;;;;5008710;28;20471;-82
2021/07/27 08:23:30;;;;;;;1.53;1.00;;;24.50;90.20;;;;;;5025321;28;20464;-82
2021/07/27 08:25:56;;;;;;;1.53;0.90;;;24.70;89.90;;;;;;5007773;28;20474;-83
2021/07/27 08:28:25;;;;;;;1.53;0.83;;;24.90;90.20;;;;;;5032166;28;20480;-82
2021/07/27 08:30:52;;;;;;;1.57;0.90;;;25.20;88.90;;;;;;5009074;28;20487;-82
2021/07/27 08:33:25;;;;;;;1.50;0.90;;;25.40;89.00;;;;;;5032227;28;20487;-79
2021/07/27 08:35:52;;;;;;;1.50;0.90;;;25.60;87.90;;;;;;5007669;28;20464;-80
2021/07/27 08:38:18;;;;;;;1.50;0.90;;;25.70;87.50;;;;;;5030311;28;20475;-81
2021/07/27 08:40:48;;;;;;;1.50;0.90;;;25.80;87.20;;;;;;5020562;28;20460;-81
2021/07/27 08:43:17;;;;;;;1.50;0.90;;;25.90;87.70;;;;;;5005274;28;20479;-79
2021/07/27 08:45:45;;;;;;;1.57;0.80;;;26.10;87.20;;;;;;4997016;28;20480;-81
2021/07/27 08:48:15;;;;;;;1.50;0.80;;;26.30;86.20;;;;;;5005596;28;20514;-82
2021/07/27 08:50:43;;;;;;;1.50;0.90;;;26.40;85.50;;;;;;4999208;28;20629;-80
2021/07/27 08:53:10;;;;;;;1.50;0.90;;;26.50;85.60;;;;;;5002525;28;20484;-81
2021/07/27 08:55:36;;;;;;;1.50;0.80;;;26.60;85.20;;;;;;4999810;28;20932;-82
2021/07/27 08:58:03;;;;;;;1.50;0.90;;;26.70;84.50;;;;;;5007095;28;21073;-79
2021/07/27 09:00:32;;;;;;;1.50;0.80;;;26.70;85.00;;;;;;5016355;28;20464;-80
2021/07/27 09:03:09;;;;;;;1.50;0.90;;;26.90;85.40;;;;;;5021652;28;20643;-79
2021/07/27 09:05:38;;;;;;;1.50;0.80;;;27.00;84.30;;;;;;5017826;28;20459;-79
2021/07/27 09:08:07;;;;;;;1.60;1.00;;;27.20;84.20;;;;;;5021824;28;20482;-79
2021/07/27 09:10:33;;;;;;;1.50;0.90;;;27.10;83.50;;;;;;5013581;28;20542;-81
2021/07/27 09:13:01;;;;;;;1.70;1.40;;;27.20;83.30;;;;;;5005395;28;20753;-79
2021/07/27 09:15:30;;;;;;;1.50;0.80;;;27.40;82.70;;;;;;4993454;28;20492;-80
2021/07/27 09:17:58;;;;;;;1.50;0.80;;;27.50;82.90;;;;;;5012659;28;20587;-80
2021/07/27 09:20:28;;;;;;;1.57;0.80;;;27.60;81.80;;;;;;5017699;28;20491;-80
2021/07/27 09:22:55;;;;;;;1.53;0.90;;;27.90;81.80;;;;;;5012133;28;20472;-80
2021/07/27 09:25:26;;;;;;;1.50;0.90;;;28.00;81.00;;;;;;5017384;28;20535;-79
2021/07/27 09:28:02;;;;;;;1.50;0.90;;;28.00;81.60;;;;;;5018284;28;20838;-79
2021/07/27 09:30:29;;;;;;;2.57;1.67;;;28.00;80.40;;;;;;5014364;28;20459;-79
2021/07/27 09:32:59;;;;;;;1.50;0.80;;;27.90;80.00;;;;;;5008825;28;20896;-79
2021/07/27 09:35:28;;;;;;;1.50;0.90;;;27.80;80.50;;;;;;5016713;28;20466;-80
2021/07/27 09:38:17;;;;;;;1.50;0.80;;;27.70;81.60;;;;;;5012224;28;20489;-79
2021/07/27 09:40:51;;;;;;;1.50;0.90;;;27.50;81.50;;;;;;5010526;28;20455;-80
2021/07/27 09:43:19;;;;;;;1.50;0.80;;;27.40;81.00;;;;;;5009386;28;20475;-80
2021/07/27 09:45:47;;;;;;;1.50;0.80;;;27.30;82.30;;;;;;5021157;28;20462;-80
2021/07/27 09:48:15;;;;;;;1.50;0.90;;;27.30;82.70;;;;;;5009610;28;21041;-79
2021/07/27 09:50:46;;;;;;;1.50;0.90;;;27.20;81.50;;;;;;5016658;28;20518;-78
2021/07/27 09:53:14;;;;;;;1.50;0.80;;;27.00;80.60;;;;;;4984607;28;20496;-80
2021/07/27 09:55:41;;;;;;;1.50;0.80;;;26.90;80.90;;;;;;4999969;28;20471;-80
2021/07/27 09:58:09;;;;;;;1.50;0.80;;;26.70;80.60;;;;;;5006115;28;20491;-79
2021/07/27 10:00:43;;;;;;;1.50;0.80;;;26.60;82.40;;;;;;5025154;28;20460;-79
2021/07/27 10:03:13;;;;;;;1.50;0.80;;;26.50;81.60;;;;;;5013275;28;20476;-78
2021/07/27 10:05:40;;;;;;;1.50;0.80;;;26.60;82.20;;;;;;5012751;28;20468;-79
2021/07/27 10:08:08;;;;;;;1.50;0.80;;;26.70;81.40;;;;;;5015224;28;20482;-79
2021/07/27 10:10:38;;;;;;;1.50;0.80;;;26.80;81.70;;;;;;5002425;28;20461;-79
2021/07/27 10:13:09;;;;;;;1.50;0.80;;;26.90;81.70;;;;;;5007462;28;20998;-78
2021/07/27 10:15:44;;;;;;;1.50;0.87;;;27.10;80.00;;;;;;5009632;28;20459;-79
2021/07/27 10:18:12;;;;;;;1.50;0.90;;;27.30;77.20;;;;;;5006079;28;20507;-79
2021/07/27 10:20:39;;;;;;;1.50;0.90;;;27.40;76.90;;;;;;5010199;28;20463;-81
2021/07/27 10:23:18;;;;;;;1.70;1.20;;;27.40;77.60;;;;;;5017955;28;20482;-79
2021/07/27 10:25:59;;;;;;;1.50;0.90;;;27.50;77.50;;;;;;5006205;28;20470;-78
2021/07/27 10:28:27;;;;;;;1.50;0.80;;;27.60;78.50;;;;;;5000914;28;20480;-78
2021/07/27 10:31:04;;;;;;;1.50;0.90;;;27.60;78.00;;;;;;4999186;28;20464;-78
2021/07/27 10:33:31;;;;;;;1.50;0.80;;;27.60;76.00;;;;;;5011840;28;20495;-81
2021/07/27 10:35:58;;;;;;;1.50;0.80;;;27.70;76.50;;;;;;4997558;28;20459;-77
2021/07/27 10:38:36;;;;;;;1.50;0.90;;;27.80;77.10;;;;;;5018789;28;20494;-80
2021/07/27 10:41:14;;;;;;;1.50;0.80;;;27.80;76.20;;;;;;4997915;28;20808;-79
2021/07/27 10:43:41;;;;;;;1.50;0.90;;;28.00;75.90;;;;;;5015375;28;20484;-79
2021/07/27 10:46:10;;;;;;;1.50;0.80;;;28.10;76.30;;;;;;5002614;28;21088;-78
2021/07/27 10:48:38;;;;;;;1.50;0.80;;;28.20;76.10;;;;;;5019259;28;20460;-80
2021/07/27 10:51:05;;;;;;;1.50;0.80;;;28.10;75.20;;;;;;5004642;28;20463;-78
2021/07/27 10:53:35;;;;;;;1.50;0.80;;;28.00;75.90;;;;;;5023267;28;20491;-79
2021/07/27 10:56:04;;;;;;;6.43;2.83;;;27.90;77.00;;;;;;5002880;28;20523;-80
2021/07/27 10:58:32;;;;;;;1.50;0.80;;;27.80;77.20;;;;;;5020978;28;20971;-78
2021/07/27 11:01:10;;;;;;;1.50;0.80;;;27.80;77.10;;;;;;4997729;28;20464;-79
2021/07/27 11:03:40;;;;;;;1.50;0.80;;;27.60;77.50;;;;;;5021521;28;20466;-78
2021/07/27 11:06:08;;;;;;;1.50;0.80;;;27.70;78.30;;;;;;4998524;28;20517;-79
2021/07/27 11:08:41;;;;;;;1.50;0.90;;;27.80;77.20;;;;;;5022864;28;20724;-79
2021/07/27 11:11:08;;;;;;;1.50;0.80;;;28.00;77.30;;;;;;5009864;28;20456;-77
2021/07/27 11:13:37;;;;;;;1.50;0.80;;;28.10;77.70;;;;;;5021739;28;20513;-78
2021/07/27 11:16:04;;;;;;;1.50;0.80;;;28.30;76.70;;;;;;4999832;28;20539;-77
2021/07/27 11:18:31;;;;;;;1.50;0.80;;;28.40;76.20;;;;;;5017269;28;20475;-80
2021/07/27 11:21:00;;;;;;;1.50;0.80;;;28.50;74.90;;;;;;4993867;28;20459;-77
2021/07/27 11:23:32;;;;;;;1.50;0.80;;;28.60;75.40;;;;;;5017369;28;20484;-78
2021/07/27 11:26:02;;;;;;;1.50;0.80;;;28.70;75.00;;;;;;4996759;28;20482;-79
2021/07/27 11:28:37;;;;;;;1.50;0.80;;;28.90;73.90;;;;;;5015692;28;20498;-78
2021/07/27 11:31:04;;;;;;;1.50;0.80;;;29.10;74.10;;;;;;4995599;28;20830;-78
2021/07/27 11:33:31;;;;;;;1.50;0.80;;;29.30;74.70;;;;;;5008136;28;20578;-80
2021/07/27 11:36:00;;;;;;;1.50;0.80;;;29.40;72.90;;;;;;5002986;28;20470;-79
2021/07/27 11:38:29;;;;;;;1.70;1.40;;;29.60;72.00;;;;;;5020020;28;20748;-77
2021/07/27 11:41:08;;;;;;;1.50;0.80;;;29.90;70.90;;;;;;4994885;28;21064;-78
2021/07/27 11:43:36;;;;;;;1.50;0.80;;;30.00;70.10;;;;;;5010212;28;20963;-78
2021/07/27 11:46:08;;;;;;;1.50;0.90;;;30.10;69.80;;;;;;4998784;28;20463;-78
2021/07/27 11:48:36;;;;;;;1.50;0.87;;;30.20;69.50;;;;;;5015533;28;20467;-79
2021/07/27 11:51:04;;;;;;;1.50;0.80;;;30.40;69.60;;;;;;4996691;28;20444;-81
2021/07/27 11:53:36;;;;;;;1.60;1.10;;;30.50;70.00;;;;;;5012164;28;20484;-76
2021/07/27 11:56:12;;;;;;;3.10;2.80;;;30.60;68.50;;;;;;5000170;28;20459;-79
2021/07/27 11:58:39;;;;;;;1.50;0.80;;;30.70;68.00;;;;;;5013138;28;20835;-81
2021/07/27 12:01:09;;;;;;;1.50;0.90;;;30.80;68.90;;;;;;5000822;28;20976;-80
2021/07/27 12:03:36;;;;;;;1.50;0.80;;;30.90;67.80;;;;;;5010058;28;20514;-78
2021/07/27 12:06:13;;;;;;;1.50;0.80;;;30.90;66.80;;;;;;5000757;28;20566;-78
2021/07/27 12:08:40;;;;;;;1.50;0.80;;;30.90;67.90;;;;;;5012604;28;20459;-77
2021/07/27 12:11:08;;;;;;;1.47;0.80;;;31.10;68.50;;;;;;5001250;28;20470;-78
2021/07/27 12:13:36;;;;;;;1.47;0.80;;;31.20;67.70;;;;;;5013352;28;20467;-76
2021/07/27 12:16:05;;;;;;;1.47;0.80;;;31.30;68.20;;;;;;4999940;28;20510;-77
2021/07/27 12:18:32;;;;;;;1.50;0.80;;;31.50;67.40;;;;;;5018075;28;20466;-79
2021/07/27 12:20:59;;;;;;;1.50;0.90;;;31.60;66.00;;;;;;4999158;28;20802;-79
2021/07/27 12:23:26;;;;;;;1.47;0.80;;;31.60;66.00;;;;;;5018238;28;20459;-80
2021/07/27 12:25:52;;;;;;;1.50;0.80;;;31.70;66.20;;;;;;4995015;28;20464;-78
2021/07/27 12:28:19;;;;;;;1.47;0.80;;;31.70;66.50;;;;;;5016020;28;20483;-79
2021/07/27 12:30:47;;;;;;;1.47;0.83;;;31.70;66.50;;;;;;5009352;28;20459;-79
2021/07/27 12:33:15;;;;;;;1.43;0.80;;;31.70;65.80;;;;;;4994957;28;20557;-77
2021/07/27 12:35:42;;;;;;;1.43;0.80;;;31.50;66.60;;;;;;5009416;28;20636;-81
2021/07/27 12:38:09;;;;;;;1.50;0.90;;;31.30;67.00;;;;;;5000841;28;20867;-77
2021/07/27 12:40:35;;;;;;;1.47;0.80;;;31.20;66.50;;;;;;5006062;28;20463;-77
2021/07/27 12:43:04;;;;;;;1.50;0.80;;;31.10;68.00;;;;;;5006429;28;20573;-77
2021/07/27 12:45:32;;;;;;;1.50;0.80;;;31.10;67.30;;;;;;5004657;28;21037;-77
2021/07/27 12:48:01;;;;;;;1.50;1.00;;;31.10;68.60;;;;;;5015012;28;20494;-77
2021/07/27 12:50:27;;;;;;;1.50;0.80;;;31.10;67.70;;;;;;5011688;28;20490;-81
2021/07/27 12:52:54;;;;;;;1.50;0.80;;;31.10;67.40;;;;;;5007377;28;20478;-79
2021/07/27 12:55:21;;;;;;;1.50;0.80;;;31.10;68.20;;;;;;5006994;28;21199;-77
2021/07/27 12:57:48;;;;;;;1.50;0.80;;;31.20;67.70;;;;;;5006359;28;20242;-77
2021/07/27 13:00:16;;;;;;;1.47;0.80;;;31.40;69.10;;;;;;4998380;28;20483;-77
2021/07/27 13:02:43;;;;;;;1.50;0.80;;;31.50;67.20;;;;;;5004246;28;20478;-78
2021/07/27 13:05:12;;;;;;;1.50;0.87;;;31.60;67.60;;;;;;5012800;28;20464;-80
2021/07/27 13:07:39;;;;;;;1.47;0.80;;;31.40;66.50;;;;;;5014604;28;20486;-78
2021/07/27 13:10:06;;;;;;;1.43;0.80;;;31.40;66.50;;;;;;5011879;28;20985;-81